createdAt,value
2022-08-17T00:03:22.415Z,28.70
2022-08-17T00:08:37.488Z,29.00
2022-08-17T00:13:50.752Z,29.30
2022-08-17T00:19:08.347Z,29.50
2022-08-17T00:24:14.315Z,29.70
2022-08-17T00:29:20.543Z,29.60
2022-08-17T00:34:27.988Z,29.60
2022-08-17T00:39:33.917Z,29.70
2022-08-17T00:44:40.319Z,29.90
2022-08-17T00:49:45.746Z,30.00
2022-08-17T00:54:56.022Z,30.20
2022-08-17T01:00:15.320Z,30.50
2022-08-17T01:05:26.131Z,30.80
2022-08-17T01:10:59.735Z,30.90
2022-08-17T01:16:19.143Z,31.60
2022-08-17T01:21:36.500Z,32.10
2022-08-17T01:26:44.268Z,31.90
2022-08-17T01:31:55.661Z,31.90
2022-08-17T01:37:01.680Z,32.00
2022-08-17T01:42:33.732Z,32.30
2022-08-17T01:47:39.663Z,32.00
2022-08-17T01:52:49.572Z,31.50
2022-08-17T01:57:55.570Z,31.50
2022-08-17T02:03:02.044Z,31.70
2022-08-17T02:08:08.771Z,31.80
2022-08-17T02:13:25.568Z,31.90
2022-08-17T02:18:31.657Z,32.00
2022-08-17T02:23:43.164Z,32.40
2022-08-17T02:28:48.451Z,32.70
2022-08-17T02:34:00.383Z,33.00
2022-08-17T02:39:10.982Z,33.30
2022-08-17T02:44:39.035Z,33.30
2022-08-17T02:49:55.619Z,33.30
2022-08-17T02:55:01.411Z,33.60
2022-08-17T03:00:14.700Z,33.80
2022-08-17T03:05:23.275Z,34.10
2022-08-17T03:10:31.240Z,34.20
2022-08-17T03:15:37.784Z,34.20
2022-08-17T03:20:49.898Z,34.70
2022-08-17T03:25:56.854Z,35.40
2022-08-17T03:31:03.071Z,36.30
2022-08-17T03:36:09.487Z,36.50
2022-08-17T03:41:15.539Z,36.50
2022-08-17T03:46:39.171Z,36.10
2022-08-17T03:52:03.508Z,35.50
2022-08-17T03:57:11.969Z,35.20
2022-08-17T04:02:26.664Z,35.30
2022-08-17T04:07:33.646Z,35.40
2022-08-17T04:12:56.178Z,35.80
2022-08-17T04:18:03.653Z,36.20
2022-08-17T04:23:12.865Z,36.50
2022-08-17T04:28:21.157Z,37.00
2022-08-17T04:33:29.224Z,36.90
2022-08-17T04:38:38.069Z,36.80
2022-08-17T04:43:45.626Z,36.40
2022-08-17T04:48:54.460Z,36.30
2022-08-17T04:54:12.979Z,36.50
2022-08-17T04:59:23.595Z,36.50
2022-08-17T05:04:35.118Z,36.00
2022-08-17T05:09:41.099Z,35.80
2022-08-17T05:14:46.591Z,36.40
2022-08-17T05:19:52.803Z,36.10
2022-08-17T05:24:58.907Z,35.90
2022-08-17T05:30:07.916Z,35.90
2022-08-17T05:35:14.211Z,35.90
2022-08-17T05:40:21.423Z,35.60
2022-08-17T05:45:54.324Z,35.60
2022-08-17T05:51:28.994Z,37.10
2022-08-17T05:56:53.179Z,37.60
2022-08-17T06:02:20.513Z,36.90
2022-08-17T06:07:38.628Z,36.20
2022-08-17T06:12:53.625Z,36.00
2022-08-17T06:18:07.495Z,34.90
2022-08-17T06:23:18.824Z,34.60
2022-08-17T06:28:36.242Z,35.40
2022-08-17T06:33:43.246Z,35.90
2022-08-17T06:39:07.434Z,36.20
2022-08-17T06:44:43.134Z,36.80
2022-08-17T06:50:18.354Z,37.90
2022-08-17T06:55:58.195Z,38.00
2022-08-17T07:01:28.337Z,38.90
2022-08-17T07:06:46.652Z,37.90
2022-08-17T07:12:05.380Z,37.20
2022-08-17T07:17:16.736Z,36.50
2022-08-17T07:22:59.815Z,38.20
2022-08-17T07:28:09.379Z,39.50
2022-08-17T07:33:21.457Z,40.30
2022-08-17T07:44:21.744Z,39.30
2022-08-17T07:49:38.629Z,40.40
2022-08-17T07:54:45.343Z,41.00
2022-08-17T08:00:03.295Z,40.10
2022-08-17T08:05:48.730Z,39.40
2022-08-17T08:11:11.204Z,39.20
2022-08-17T08:16:21.614Z,37.50
2022-08-17T08:21:45.826Z,37.10
2022-08-17T08:27:09.724Z,36.80
2022-08-17T08:32:26.804Z,36.40
2022-08-17T08:38:12.954Z,36.10
2022-08-17T08:43:52.991Z,36.00
2022-08-17T08:49:19.204Z,35.50
2022-08-17T08:54:43.024Z,35.10
2022-08-17T09:00:12.384Z,34.90
2022-08-17T09:05:50.109Z,34.70
2022-08-17T09:11:01.707Z,34.50
2022-08-17T09:16:25.408Z,34.70
2022-08-17T09:21:55.527Z,34.70
2022-08-17T09:27:08.510Z,34.40
2022-08-17T09:32:41.463Z,34.20
2022-08-17T09:37:55.299Z,34.20
2022-08-17T09:43:34.830Z,34.20
2022-08-17T09:48:52.108Z,34.10
2022-08-17T09:54:09.681Z,33.90
2022-08-17T09:59:39.643Z,33.70
2022-08-17T10:05:08.244Z,33.50
2022-08-17T10:10:39.111Z,33.20
2022-08-17T10:16:23.269Z,32.90
2022-08-17T10:21:47.812Z,32.60
2022-08-17T10:26:57.420Z,32.50
2022-08-17T10:32:10.199Z,32.30
2022-08-17T10:37:51.982Z,32.10
2022-08-17T10:43:06.508Z,31.90
2022-08-17T10:48:31.980Z,31.70
2022-08-17T10:53:43.954Z,31.50
2022-08-17T10:58:57.066Z,31.30
2022-08-17T11:04:07.326Z,31.20
2022-08-17T11:09:36.415Z,31.10
2022-08-17T11:14:59.821Z,31.00
2022-08-17T11:20:20.892Z,31.00
2022-08-17T11:25:57.507Z,30.90
2022-08-17T11:31:38.498Z,30.80
2022-08-17T11:37:22.901Z,30.80
2022-08-17T11:43:25.648Z,30.60
2022-08-17T11:55:44.351Z,30.40
2022-08-17T12:02:37.484Z,30.30
2022-08-17T12:08:07.090Z,30.20
2022-08-17T12:13:18.449Z,30.10
2022-08-17T12:18:30.673Z,30.10
2022-08-17T12:23:53.833Z,30.10
2022-08-17T12:29:35.483Z,30.10
2022-08-17T12:34:46.315Z,30.00
2022-08-17T12:40:01.985Z,30.00
2022-08-17T12:45:10.597Z,29.90
2022-08-17T12:50:28.660Z,29.90
2022-08-17T12:55:40.406Z,29.80
2022-08-17T13:01:10.440Z,29.70
2022-08-17T13:06:28.079Z,29.70
2022-08-17T13:11:33.752Z,29.60
2022-08-17T13:16:40.008Z,29.60
2022-08-17T13:21:52.182Z,29.50
2022-08-17T13:27:11.781Z,29.50
2022-08-17T13:32:37.712Z,29.50
2022-08-17T13:38:02.985Z,29.40
2022-08-17T13:43:09.770Z,29.30
2022-08-17T13:48:25.759Z,29.30
2022-08-17T13:53:45.215Z,29.20
2022-08-17T13:59:10.115Z,29.10
2022-08-17T14:04:25.630Z,29.10
2022-08-17T14:09:43.624Z,29.20
2022-08-17T14:14:52.566Z,29.10
2022-08-17T14:19:59.152Z,29.10
2022-08-17T14:25:14.526Z,29.10
2022-08-17T14:30:21.648Z,29.10
2022-08-17T14:35:29.579Z,29.00
2022-08-17T14:40:36.790Z,28.90
2022-08-17T14:45:42.949Z,28.80
2022-08-17T14:50:49.083Z,28.80
2022-08-17T14:55:54.736Z,28.60
2022-08-17T15:01:01.024Z,28.70
2022-08-17T15:06:07.666Z,28.70
2022-08-17T15:11:21.669Z,28.70
2022-08-17T15:16:28.586Z,28.70
2022-08-17T15:21:35.318Z,28.70
2022-08-17T15:26:42.072Z,28.60
2022-08-17T15:31:51.144Z,28.60
2022-08-17T15:37:37.010Z,28.60
2022-08-17T15:42:43.123Z,28.50
2022-08-17T15:47:49.922Z,28.50
2022-08-17T15:53:17.955Z,28.50
2022-08-17T15:58:32.283Z,28.40
2022-08-17T16:03:59.392Z,28.60
2022-08-17T16:09:06.336Z,28.60
2022-08-17T16:14:13.570Z,28.60
2022-08-17T16:19:23.323Z,28.70
2022-08-17T16:24:28.991Z,28.80
2022-08-17T16:29:33.812Z,28.70
2022-08-17T16:34:39.529Z,28.70
2022-08-17T16:39:45.940Z,28.70
2022-08-17T16:44:51.310Z,28.70
2022-08-17T16:49:57.163Z,28.60
2022-08-17T16:55:06.344Z,28.60
2022-08-17T17:00:14.891Z,28.60
2022-08-17T17:05:39.734Z,28.60
2022-08-17T17:10:52.236Z,28.60
2022-08-17T17:16:23.122Z,28.50
2022-08-17T17:21:44.001Z,28.50
2022-08-17T17:27:20.731Z,28.40
2022-08-17T17:32:47.745Z,28.40
2022-08-17T17:37:58.799Z,28.40
2022-08-17T17:43:34.770Z,28.30
2022-08-17T17:48:33.410Z,28.30
2022-08-17T17:53:53.898Z,28.20
2022-08-17T17:59:41.828Z,28.10
2022-08-17T18:05:03.815Z,28.10
2022-08-17T18:10:57.179Z,28.10
2022-08-17T18:16:04.496Z,28.10
2022-08-17T18:21:18.022Z,28.10
2022-08-17T18:26:49.388Z,28.10
2022-08-17T18:32:19.507Z,28.00
2022-08-17T18:37:42.467Z,27.90
2022-08-17T18:43:05.817Z,27.90
2022-08-17T18:48:55.699Z,27.80
2022-08-17T18:54:22.361Z,27.80
2022-08-17T18:59:41.753Z,27.80
2022-08-17T19:05:05.562Z,27.80
2022-08-17T19:10:26.230Z,27.80
2022-08-17T19:15:45.001Z,27.80
2022-08-17T19:21:37.807Z,27.80
2022-08-17T19:26:50.634Z,27.80
2022-08-17T19:32:00.567Z,27.80
2022-08-17T19:37:22.254Z,27.80
2022-08-17T19:42:51.943Z,27.80
2022-08-17T19:48:21.498Z,27.80
2022-08-17T19:54:06.572Z,27.80
2022-08-17T19:59:35.795Z,27.70
2022-08-17T20:04:47.306Z,27.70
2022-08-17T20:10:10.628Z,27.70
2022-08-17T20:15:37.597Z,27.60
2022-08-17T20:21:20.767Z,27.60
2022-08-17T20:26:42.111Z,27.60
2022-08-17T20:31:59.398Z,27.60
2022-08-17T20:37:16.731Z,27.60
2022-08-17T20:42:25.188Z,27.60
2022-08-17T20:48:07.318Z,27.60
2022-08-17T20:53:16.153Z,27.60
2022-08-17T20:58:29.997Z,27.60
2022-08-17T21:03:49.183Z,27.60
2022-08-17T21:09:19.609Z,27.60
2022-08-17T21:14:39.533Z,27.60
2022-08-17T21:20:12.115Z,27.60
2022-08-17T21:25:50.760Z,27.60
2022-08-17T21:31:04.055Z,27.60
2022-08-17T21:36:18.673Z,27.60
2022-08-17T21:41:28.876Z,27.60
2022-08-17T21:46:40.286Z,27.60
2022-08-17T21:51:51.450Z,27.50
2022-08-17T21:56:57.364Z,27.60
2022-08-17T22:02:11.533Z,27.60
2022-08-17T22:07:17.121Z,27.60
2022-08-17T22:12:27.116Z,27.60
2022-08-17T22:17:37.351Z,27.60
2022-08-17T22:23:07.068Z,27.60
2022-08-17T22:28:14.448Z,27.60
2022-08-17T22:33:41.071Z,27.70
2022-08-17T22:38:46.620Z,27.70
2022-08-17T22:43:53.908Z,27.70
2022-08-17T22:49:01.792Z,27.70
2022-08-17T22:54:39.451Z,27.70
2022-08-17T22:59:50.501Z,27.70
2022-08-17T23:05:15.788Z,27.70
2022-08-17T23:10:22.484Z,27.80
2022-08-17T23:15:34.508Z,27.90
2022-08-17T23:20:48.338Z,27.90
2022-08-17T23:25:53.977Z,27.90
2022-08-17T23:31:00.437Z,28.00
2022-08-17T23:36:06.838Z,28.00
2022-08-17T23:41:20.310Z,28.00
2022-08-17T23:46:28.798Z,28.00
2022-08-17T23:51:39.756Z,28.10
2022-08-17T23:56:51.267Z,28.20
